Time;durP1;ratioP1;P1;durP2;ratioP2;P2;SDS_P1;SDS_P2;PMS_P1;PMS_P2;Temp;Humidity;BMP_temperature;BMP_pressure;BME280_temperature;BME280_humidity;BME280_pressure;Samples;Min_cycle;Max_cycle;Signal;HPM_P1;HPM_P2
2023/12/22 01:30:13;;;;;;;0.70;0.70;;;;;;;10.37;100.00;99176.84;941839;23;20319;-93
2023/12/22 01:32:39;;;;;;;0.70;0.70;;;;;;;10.14;100.00;99157.53;4984778;28;20050;-93
2023/12/22 01:35:09;;;;;;;0.80;0.80;;;;;;;10.13;100.00;99177.91;4967409;28;20031;-93
2023/12/22 01:37:36;;;;;;;0.70;0.70;;;;;;;9.99;100.00;99174.97;4973752;28;20295;-92
2023/12/22 01:40:01;;;;;;;0.75;0.75;;;;;;;9.89;100.00;99173.63;4970375;28;20007;-93
2023/12/22 01:42:27;;;;;;;0.70;0.70;;;;;;;10.01;100.00;99207.66;4970449;28;20049;-92
2023/12/22 01:44:52;;;;;;;0.63;0.63;;;;;;;9.45;100.00;99118.06;4967351;28;20059;-93
2023/12/22 03:50:18;;;;;;;0.70;0.70;;;;;;;10.06;95.08;99202.13;818361;23;20342;-90
2023/12/22 03:52:43;;;;;;;0.80;0.80;;;;;;;10.20;95.43;99229.88;4932988;29;20062;-91
2023/12/22 03:55:09;;;;;;;0.80;0.80;;;;;;;10.20;95.94;99235.19;4926730;29;20047;-92
2023/12/22 03:57:34;;;;;;;0.70;0.70;;;;;;;10.15;95.17;99231.84;4929531;29;20099;-91
2023/12/22 03:59:59;;;;;;;0.63;0.63;;;;;;;10.25;94.97;99256.22;4945865;29;20102;-90
2023/12/22 04:02:25;;;;;;;0.70;0.70;;;;;;;10.24;94.60;99243.88;4948266;29;20094;-91
2023/12/22 04:04:50;;;;;;;0.70;0.70;;;;;;;10.21;95.17;99252.84;4934225;29;20086;-91
2023/12/22 04:07:16;;;;;;;0.70;0.70;;;;;;;10.27;95.49;99254.38;4944361;29;20106;-90
2023/12/22 04:09:41;;;;;;;0.80;0.80;;;;;;;10.18;96.29;99244.16;4932957;28;20027;-91
2023/12/22 04:12:07;;;;;;;0.70;0.70;;;;;;;10.24;96.17;99255.38;4945585;29;20366;-90
2023/12/22 04:14:32;;;;;;;0.70;0.70;;;;;;;10.14;96.99;99232.78;4944927;29;20037;-91
2023/12/22 04:16:58;;;;;;;0.73;0.73;;;;;;;10.22;95.83;99251.94;4944123;29;20022;-90
2023/12/22 04:19:23;;;;;;;0.70;0.70;;;;;;;10.39;95.86;99278.63;4944729;29;20031;-90
2023/12/22 04:21:48;;;;;;;0.80;0.80;;;;;;;10.22;96.81;99233.31;4960254;29;20023;-90
2023/12/22 04:24:14;;;;;;;0.80;0.80;;;;;;;10.32;94.88;99252.38;4962877;28;20020;-91
2023/12/22 04:26:39;;;;;;;0.70;0.70;;;;;;;10.34;94.16;99238.13;4952865;29;20031;-89
2023/12/22 04:29:05;;;;;;;0.70;0.70;;;;;;;10.51;94.00;99253.28;4925602;29;20041;-88
2023/12/22 04:31:30;;;;;;;0.70;0.70;;;;;;;10.48;93.19;99237.47;4930310;29;20036;-90
2023/12/22 04:33:56;;;;;;;0.70;0.70;;;;;;;10.51;91.75;99235.53;4938615;29;20027;-91
2023/12/22 04:36:21;;;;;;;0.60;0.60;;;;;;;10.39;92.79;99225.44;4945474;29;20111;-90
2023/12/22 04:38:47;;;;;;;0.80;0.80;;;;;;;10.53;92.62;99241.66;4944412;29;20059;-91
2023/12/22 04:41:12;;;;;;;0.70;0.70;;;;;;;10.41;91.59;99234.22;4929760;29;20028;-90
2023/12/22 04:43:37;;;;;;;0.70;0.70;;;;;;;10.44;92.05;99255.34;4936170;29;20493;-90
2023/12/22 04:46:03;;;;;;;0.70;0.70;;;;;;;10.52;92.06;99263.00;4934962;29;20125;-90
2023/12/22 04:48:28;;;;;;;0.70;0.70;;;;;;;10.57;91.65;99264.53;4926948;29;20024;-90
2023/12/22 04:50:54;;;;;;;0.70;0.70;;;;;;;10.48;90.90;99259.63;4940076;29;20051;-87
2023/12/22 04:53:19;;;;;;;0.70;0.70;;;;;;;10.47;91.42;99263.22;4942395;29;20039;-90
2023/12/22 04:55:45;;;;;;;0.70;0.70;;;;;;;10.58;91.54;99268.91;4927285;29;20055;-89
2023/12/22 04:58:10;;;;;;;0.80;0.80;;;;;;;10.52;91.64;99263.88;4943370;29;20027;-90
2023/12/22 05:00:35;;;;;;;0.70;0.70;;;;;;;10.50;91.52;99247.13;4945189;29;20039;-89
2023/12/22 05:03:01;;;;;;;0.70;0.70;;;;;;;10.41;91.41;99258.16;4945176;29;20079;-89
2023/12/22 05:05:26;;;;;;;0.70;0.70;;;;;;;10.56;91.82;99265.47;4965028;28;20026;-89
2023/12/22 05:07:52;;;;;;;0.70;0.70;;;;;;;10.37;91.42;99240.63;4964235;28;20023;-89
2023/12/22 05:10:17;;;;;;;0.70;0.70;;;;;;;10.67;91.61;99290.72;4963208;28;20043;-89
2023/12/22 05:12:43;;;;;;;0.80;0.80;;;;;;;10.55;91.58;99269.06;4953842;29;20556;-88
2023/12/22 05:15:08;;;;;;;0.70;0.70;;;;;;;10.40;91.15;99256.44;4956079;28;20428;-89
2023/12/22 05:17:34;;;;;;;0.70;0.70;;;;;;;10.60;91.28;99291.00;4962866;28;20750;-90
2023/12/22 05:19:59;;;;;;;0.70;0.70;;;;;;;10.15;92.06;99215.03;4955803;28;20023;-88
2023/12/22 05:22:26;;;;;;;0.70;0.70;;;;;;;10.48;91.44;99285.34;4924523;29;20038;-89
2023/12/22 05:24:51;;;;;;;0.60;0.60;;;;;;;10.53;91.02;99286.00;4924067;29;20052;-90
2023/12/22 05:27:16;;;;;;;0.70;0.70;;;;;;;10.63;90.97;99312.13;4944107;29;20051;-90
2023/12/22 05:29:42;;;;;;;0.70;0.70;;;;;;;10.52;91.81;99302.91;4950049;29;20098;-89
2023/12/22 05:32:07;;;;;;;0.70;0.70;;;;;;;10.57;92.38;99315.06;4947271;29;20031;-89
2023/12/22 05:34:33;;;;;;;0.70;0.70;;;;;;;10.56;92.65;99325.75;4939998;29;20031;-89
2023/12/22 05:36:58;;;;;;;0.80;0.80;;;;;;;10.49;92.35;99303.88;4965689;29;20019;-90
2023/12/22 05:39:24;;;;;;;0.70;0.70;;;;;;;10.54;92.61;99317.00;4948024;29;20059;-90
2023/12/22 05:41:49;;;;;;;0.75;0.75;;;;;;;10.46;92.45;99304.00;4947675;29;20031;-90
2023/12/22 05:44:14;;;;;;;0.70;0.70;;;;;;;10.40;92.59;99303.41;4942491;29;20035;-89
2023/12/22 05:46:40;;;;;;;0.80;0.80;;;;;;;10.57;93.60;99341.66;4958409;28;20182;-90
2023/12/22 05:49:06;;;;;;;0.70;0.70;;;;;;;10.68;93.39;99358.91;4980745;28;20030;-89
2023/12/22 05:51:38;;;;;;;0.70;0.70;;;;;;;10.59;92.10;99358.38;4938304;29;20044;-90
2023/12/22 05:54:08;;;;;;;0.60;0.60;;;;;;;10.59;91.57;99352.22;4909339;29;20036;-91
2023/12/22 05:56:34;;;;;;;0.68;0.68;;;;;;;10.64;91.81;99347.56;4924148;29;20024;-90
2023/12/22 05:58:59;;;;;;;0.70;0.70;;;;;;;10.49;91.24;99346.41;4908843;29;20043;-91
2023/12/22 06:01:25;;;;;;;0.68;0.68;;;;;;;10.42;91.42;99318.38;4911615;29;20036;-88
2023/12/22 06:03:51;;;;;;;0.70;0.70;;;;;;;10.58;90.33;99351.34;4908564;29;20139;-89
2023/12/22 06:06:16;;;;;;;0.70;0.70;;;;;;;10.74;90.28;99374.63;4915876;29;20088;-90
2023/12/22 06:08:42;;;;;;;0.60;0.60;;;;;;;10.63;90.78;99370.63;4906675;29;20118;-89
2023/12/22 06:11:07;;;;;;;0.70;0.70;;;;;;;10.66;89.44;99379.41;4924139;29;20028;-89
2023/12/22 06:13:33;;;;;;;0.60;0.60;;;;;;;10.72;89.64;99374.69;4921137;29;20060;-91
2023/12/22 06:15:58;;;;;;;0.70;0.70;;;;;;;10.52;89.25;99329.47;4936205;29;20512;-90
2023/12/22 06:18:23;;;;;;;0.70;0.70;;;;;;;10.57;89.58;99348.75;4908853;29;20036;-89
2023/12/22 06:20:49;;;;;;;0.70;0.70;;;;;;;10.75;89.54;99349.75;4925786;29;20078;-89
2023/12/22 06:23:15;;;;;;;0.70;0.70;;;;;;;10.72;88.83;99345.44;4932656;29;20028;-89
2023/12/22 06:25:40;;;;;;;0.80;0.80;;;;;;;10.71;89.45;99346.34;4908246;29;20031;-89
2023/12/22 06:28:06;;;;;;;0.73;0.73;;;;;;;10.72;88.76;99342.78;4906567;29;20039;-89
2023/12/22 06:30:31;;;;;;;0.70;0.70;;;;;;;10.62;88.98;99342.28;4904860;29;20035;-91
2023/12/22 06:32:57;;;;;;;0.80;0.80;;;;;;;10.75;88.89;99379.88;4942314;29;20028;-90
2023/12/22 06:35:23;;;;;;;0.70;0.70;;;;;;;10.74;89.15;99377.28;4926653;29;20028;-91
2023/12/22 06:37:49;;;;;;;0.70;0.70;;;;;;;10.44;88.68;99339.59;4929905;29;20062;-89
2023/12/22 06:40:15;;;;;;;0.70;0.70;;;;;;;10.76;87.98;99389.56;4940983;29;20027;-90
2023/12/22 06:42:40;;;;;;;0.70;0.70;;;;;;;10.54;87.84;99339.09;4907452;29;20343;-90
2023/12/22 06:45:06;;;;;;;0.70;0.70;;;;;;;10.86;88.12;99382.06;4907020;29;20154;-91
2023/12/22 06:47:32;;;;;;;0.70;0.70;;;;;;;10.73;87.81;99364.91;4944496;29;20020;-90
2023/12/22 06:49:57;;;;;;;0.70;0.70;;;;;;;10.48;88.20;99312.78;4935943;29;20080;-90
2023/12/22 06:52:23;;;;;;;0.80;0.80;;;;;;;10.82;87.47;99385.81;4935720;29;20074;-90
2023/12/22 06:54:48;;;;;;;0.80;0.80;;;;;;;10.35;86.86;99287.69;4944962;29;20038;-90
2023/12/22 06:57:14;;;;;;;0.70;0.70;;;;;;;10.65;87.44;99325.34;4940260;29;20035;-90
2023/12/22 06:59:40;;;;;;;0.70;0.70;;;;;;;10.94;86.97;99370.16;4941013;29;20031;-91
2023/12/22 07:02:06;;;;;;;0.60;0.60;;;;;;;10.60;87.34;99327.34;4943508;29;20059;-90
2023/12/22 07:05:22;;;;;;;0.70;0.70;;;;;;;10.90;87.79;99378.34;4958516;29;20034;-88
2023/12/22 07:07:48;;;;;;;0.80;0.80;;;;;;;10.69;87.30;99358.88;4898280;29;20059;-89
2023/12/22 07:10:13;;;;;;;0.70;0.70;;;;;;;10.77;85.98;99347.91;4935397;29;20035;-90
2023/12/22 07:12:39;;;;;;;0.70;0.70;;;;;;;10.80;86.75;99372.56;4941329;29;20031;-89
2023/12/22 07:15:08;;;;;;;0.80;0.80;;;;;;;10.77;85.85;99369.16;4941821;29;20103;-89
2023/12/22 07:17:34;;;;;;;0.80;0.80;;;;;;;11.01;86.53;99408.00;4944823;29;20054;-89
2023/12/22 07:19:59;;;;;;;0.70;0.70;;;;;;;10.75;85.52;99360.38;4922022;29;20046;-91
2023/12/22 07:22:25;;;;;;;0.60;0.60;;;;;;;11.00;86.31;99406.28;4922411;29;20115;-90
2023/12/22 07:24:52;;;;;;;0.70;0.70;;;;;;;10.90;86.36;99392.53;4921701;29;20027;-90
2023/12/22 07:27:18;;;;;;;0.70;0.70;;;;;;;10.84;86.28;99358.19;4931914;29;20034;-90
2023/12/22 07:29:43;;;;;;;0.70;0.70;;;;;;;10.60;86.07;99338.00;4941366;28;20043;-90
2023/12/22 07:32:09;;;;;;;0.70;0.70;;;;;;;11.07;86.16;99418.41;4952395;28;20468;-90
2023/12/22 07:34:34;;;;;;;0.70;0.70;;;;;;;10.73;86.48;99359.59;4937665;29;20031;-91
2023/12/22 07:36:59;;;;;;;0.70;0.70;;;;;;;10.98;86.00;99414.34;4949050;29;20027;-89
2023/12/22 07:39:25;;;;;;;0.70;0.70;;;;;;;10.97;85.70;99401.09;4941631;29;20037;-91
2023/12/22 07:41:50;;;;;;;0.70;0.70;;;;;;;10.99;86.17;99399.25;4942964;29;20086;-90
2023/12/22 07:44:16;;;;;;;0.70;0.70;;;;;;;10.97;85.54;99395.78;4942781;29;20027;-90
2023/12/22 07:46:41;;;;;;;0.80;0.80;;;;;;;10.83;85.72;99360.91;4959489;28;20035;-88
2023/12/22 07:49:07;;;;;;;0.70;0.70;;;;;;;11.02;85.77;99409.75;4942267;29;20023;-89
2023/12/22 07:51:32;;;;;;;0.70;0.70;;;;;;;10.94;85.68;99385.28;4942240;29;20090;-89
2023/12/22 07:53:58;;;;;;;0.70;0.70;;;;;;;10.55;84.67;99322.25;4939269;29;20027;-90
2023/12/22 07:56:24;;;;;;;0.80;0.80;;;;;;;10.82;85.31;99384.00;4940963;29;20036;-89
2023/12/22 07:58:49;;;;;;;0.73;0.73;;;;;;;10.96;85.78;99394.03;4923654;29;20035;-89
2023/12/22 08:01:15;;;;;;;0.80;0.80;;;;;;;11.19;85.19;99433.78;4928528;29;20023;-89
2023/12/22 08:03:41;;;;;;;0.70;0.70;;;;;;;11.03;84.73;99420.31;4940823;28;20553;-89
2023/12/22 08:06:06;;;;;;;0.77;0.77;;;;;;;11.05;84.94;99420.25;4940108;29;20024;-89
2023/12/22 08:08:33;;;;;;;0.70;0.70;;;;;;;11.13;85.01;99442.06;4923353;29;20485;-89
2023/12/22 08:10:59;;;;;;;0.60;0.60;;;;;;;11.00;84.63;99427.56;4922643;29;20035;-88
2023/12/22 08:13:24;;;;;;;0.70;0.70;;;;;;;11.12;84.70;99443.84;4934251;29;20027;-88
2023/12/22 08:15:50;;;;;;;0.70;0.70;;;;;;;11.16;84.86;99455.22;4943828;29;20031;-90
2023/12/22 08:18:16;;;;;;;0.70;0.70;;;;;;;11.13;85.11;99455.38;4942595;29;20019;-90
2023/12/22 08:20:41;;;;;;;0.70;0.70;;;;;;;11.07;85.15;99439.69;4942126;29;20023;-89
2023/12/22 08:23:07;;;;;;;0.70;0.70;;;;;;;10.98;84.52;99427.63;4943894;29;20035;-89
2023/12/22 08:25:32;;;;;;;0.60;0.60;;;;;;;11.22;84.68;99454.97;4941477;29;20058;-88
2023/12/22 08:27:57;;;;;;;0.65;0.65;;;;;;;11.12;84.59;99438.53;4941508;29;20036;-90
2023/12/22 08:30:24;;;;;;;0.70;0.70;;;;;;;10.77;84.51;99386.00;4941716;29;20027;-88
2023/12/22 08:32:50;;;;;;;0.80;0.80;;;;;;;11.15;84.27;99480.13;4958874;29;20038;-89
2023/12/22 08:35:16;;;;;;;0.63;0.63;;;;;;;11.08;85.13;99473.34;4960057;29;20032;-89
2023/12/22 08:37:42;;;;;;;0.80;0.80;;;;;;;10.71;85.13;99404.88;4923292;29;20027;-88
2023/12/22 08:40:07;;;;;;;0.70;0.70;;;;;;;11.19;85.24;99485.25;4922576;29;20027;-89
2023/12/22 08:42:33;;;;;;;0.68;0.68;;;;;;;11.06;85.33;99467.22;4922069;29;20095;-89
2023/12/22 08:44:59;;;;;;;0.70;0.70;;;;;;;11.07;85.25;99479.59;4951348;29;20035;-90
2023/12/22 08:47:25;;;;;;;0.68;0.68;;;;;;;11.04;86.20;99493.00;4951476;29;20032;-90
2023/12/22 08:49:50;;;;;;;0.70;0.70;;;;;;;11.08;86.40;99489.31;4940618;29;20027;-90
2023/12/22 08:52:16;;;;;;;0.65;0.65;;;;;;;11.03;85.55;99480.66;4941299;29;20059;-88
2023/12/22 08:54:41;;;;;;;0.60;0.60;;;;;;;11.21;85.96;99496.69;4934900;29;20023;-91
2023/12/22 08:57:06;;;;;;;0.70;0.70;;;;;;;11.19;86.12;99490.56;4922683;29;20038;-89
2023/12/22 08:59:32;;;;;;;0.60;0.60;;;;;;;11.14;85.78;99489.03;4940009;29;20481;-89
2023/12/22 09:01:57;;;;;;;0.60;0.60;;;;;;;11.17;85.48;99488.94;4936088;29;20418;-90
2023/12/22 09:04:23;;;;;;;0.60;0.60;;;;;;;11.07;85.70;99461.81;4943595;29;20027;-91
2023/12/22 09:06:49;;;;;;;0.60;0.60;;;;;;;10.81;84.16;99405.38;4942402;29;20035;-89
2023/12/22 09:09:15;;;;;;;0.60;0.60;;;;;;;11.28;84.71;99476.00;4942461;29;20035;-89
2023/12/22 09:11:40;;;;;;;0.60;0.60;;;;;;;11.09;84.23;99453.75;4961550;29;20020;-90
2023/12/22 09:14:09;;;;;;;0.60;0.60;;;;;;;11.18;83.61;99458.69;4942611;29;20087;-91
2023/12/22 09:16:35;;;;;;;0.70;0.70;;;;;;;11.19;84.11;99447.09;4941078;29;20027;-89
2023/12/22 09:19:01;;;;;;;0.60;0.60;;;;;;;11.27;84.03;99453.81;4940693;29;20046;-89
2023/12/22 09:21:26;;;;;;;0.68;0.68;;;;;;;11.18;84.77;99426.75;4957990;29;20110;-90
2023/12/22 09:23:51;;;;;;;0.60;0.60;;;;;;;11.16;84.58;99445.47;4929389;29;20106;-88
2023/12/22 09:26:17;;;;;;;0.60;0.60;;;;;;;11.19;83.71;99439.13;4922012;29;20057;-88
2023/12/22 09:28:44;;;;;;;0.70;0.70;;;;;;;11.31;83.94;99435.91;4956812;28;20368;-89
2023/12/22 09:31:10;;;;;;;0.70;0.70;;;;;;;11.25;83.89;99431.72;4941785;29;20437;-89
2023/12/22 09:33:36;;;;;;;0.50;0.50;;;;;;;11.41;84.46;99453.22;4932533;29;20038;-89
2023/12/22 09:36:02;;;;;;;0.60;0.60;;;;;;;11.24;83.97;99434.47;4941039;29;20027;-89
2023/12/22 09:38:29;;;;;;;0.60;0.60;;;;;;;11.20;85.07;99440.88;4941344;29;20035;-89
2023/12/22 09:40:56;;;;;;;0.63;0.63;;;;;;;11.18;87.12;99438.28;4941172;29;20027;-90
2023/12/22 09:43:21;;;;;;;0.70;0.70;;;;;;;11.31;89.57;99465.22;4942019;29;20019;-91
2023/12/22 09:45:49;;;;;;;0.65;0.65;;;;;;;11.24;91.05;99456.63;4945974;29;20020;-92
2023/12/22 09:48:17;;;;;;;0.70;0.70;;;;;;;11.06;92.57;99469.88;4924924;29;20023;-90
2023/12/22 09:50:44;;;;;;;0.70;0.70;;;;;;;10.89;93.32;99435.16;4922977;29;20102;-90
2023/12/22 09:53:13;;;;;;;0.70;0.70;;;;;;;10.78;94.24;99416.09;4940095;29;20084;-89
2023/12/22 09:55:40;;;;;;;0.70;0.70;;;;;;;10.94;94.45;99446.47;4923813;29;20031;-90
2023/12/22 09:58:07;;;;;;;0.60;0.60;;;;;;;10.88;94.96;99446.72;4942768;29;20034;-90
2023/12/22 10:00:33;;;;;;;0.68;0.68;;;;;;;10.82;94.96;99433.69;4942641;29;20030;-91
2023/12/22 10:02:59;;;;;;;0.57;0.57;;;;;;;10.94;94.94;99441.16;4945617;29;20099;-93
2023/12/22 10:05:24;;;;;;;0.80;0.80;;;;;;;10.72;95.48;99416.38;4945107;28;20102;-92
2023/12/22 10:07:50;;;;;;;0.70;0.70;;;;;;;10.86;95.07;99440.59;4939550;29;20125;-91
2023/12/22 10:10:18;;;;;;;0.80;0.80;;;;;;;10.72;93.90;99411.94;4947212;28;20027;-92
2023/12/22 10:12:45;;;;;;;0.70;0.70;;;;;;;10.99;92.78;99445.31;4968400;28;20027;-92
2023/12/22 10:15:12;;;;;;;0.70;0.70;;;;;;;10.83;92.76;99401.69;4961759;28;20027;-92
2023/12/22 10:17:39;;;;;;;0.70;0.70;;;;;;;10.93;93.13;99415.44;4941241;29;20028;-92
2023/12/22 10:20:05;;;;;;;0.63;0.63;;;;;;;11.07;92.79;99415.72;4929478;29;20101;-93
2023/12/22 10:22:30;;;;;;;0.70;0.70;;;;;;;11.20;91.92;99431.06;4934461;29;20072;-91
2023/12/22 10:24:56;;;;;;;0.70;0.70;;;;;;;11.05;92.14;99394.50;4944344;29;20162;-92
2023/12/22 10:27:24;;;;;;;0.63;0.63;;;;;;;11.22;92.47;99401.75;4930828;29;20059;-91
2023/12/22 10:29:50;;;;;;;0.63;0.63;;;;;;;11.17;91.75;99401.94;4947291;29;20032;-92
2023/12/22 10:32:16;;;;;;;0.63;0.63;;;;;;;11.38;92.46;99416.09;4938924;29;20066;-91
2023/12/22 10:34:42;;;;;;;0.70;0.70;;;;;;;11.24;91.15;99389.22;4947604;29;20018;-91
2023/12/22 10:37:08;;;;;;;0.60;0.60;;;;;;;11.25;90.60;99391.78;4958712;28;20027;-92
2023/12/22 10:39:36;;;;;;;0.60;0.60;;;;;;;11.43;89.70;99390.13;4967875;28;20061;-91
2023/12/22 10:42:02;;;;;;;0.60;0.60;;;;;;;11.44;90.12;99381.19;4964947;28;20045;-91
2023/12/22 10:44:28;;;;;;;0.60;0.60;;;;;;;11.37;90.07;99374.41;4971144;28;20014;-91
2023/12/22 10:46:55;;;;;;;0.60;0.60;;;;;;;11.55;90.67;99385.06;4980803;28;20081;-91
2023/12/22 10:49:22;;;;;;;0.70;0.70;;;;;;;11.44;90.92;99374.06;4965455;28;20035;-90
2023/12/22 10:51:47;;;;;;;0.52;0.52;;;;;;;11.53;92.01;99392.25;4948180;29;20109;-90
2023/12/22 10:54:13;;;;;;;0.70;0.70;;;;;;;11.49;93.63;99390.69;4943517;29;20023;-92
2023/12/22 10:56:40;;;;;;;0.50;0.50;;;;;;;11.30;95.80;99383.63;4948276;29;20046;-92
2023/12/22 10:59:06;;;;;;;0.60;0.60;;;;;;;11.21;97.51;99378.69;4947397;29;20046;-91
2023/12/22 11:01:35;;;;;;;0.60;0.60;;;;;;;11.00;97.93;99331.78;4934193;29;20030;-91
2023/12/22 11:04:06;;;;;;;0.70;0.70;;;;;;;11.17;98.65;99345.19;4926748;29;20034;-93
2023/12/22 11:06:36;;;;;;;0.60;0.60;;;;;;;10.97;99.51;99327.44;4928971;29;20743;-93
2023/12/22 11:09:07;;;;;;;0.70;0.70;;;;;;;11.04;100.00;99336.00;4932518;29;20034;-93
2023/12/22 11:11:40;;;;;;;0.70;0.70;;;;;;;11.11;100.00;99353.44;4950600;29;20090;-92
2023/12/22 11:14:06;;;;;;;0.70;0.70;;;;;;;10.97;100.00;99326.59;4955033;28;20058;-92
2023/12/22 11:16:33;;;;;;;0.60;0.60;;;;;;;11.04;100.00;99328.91;4972694;28;20044;-92
2023/12/22 12:10:33;;;;;;;0.70;0.70;;;;;;;10.76;100.00;99274.34;4998182;28;20110;-92
2023/12/22 12:13:08;;;;;;;0.65;0.65;;;;;;;10.74;100.00;99266.41;4982011;28;20496;-92
2023/12/22 12:15:34;;;;;;;0.60;0.60;;;;;;;10.76;100.00;99245.09;4983274;28;20026;-93
2023/12/22 12:18:04;;;;;;;0.70;0.70;;;;;;;10.81;100.00;99256.41;4989452;28;20033;-92
2023/12/22 12:20:30;;;;;;;0.63;0.63;;;;;;;10.60;100.00;99220.97;5000530;28;20042;-92
2023/12/22 12:22:56;;;;;;;0.70;0.70;;;;;;;10.84;100.00;99256.25;4982552;28;20026;-91
2023/12/22 12:25:29;;;;;;;0.70;0.70;;;;;;;10.68;100.00;99236.56;4984192;28;20030;-92
2023/12/22 12:28:02;;;;;;;0.63;0.63;;;;;;;10.79;100.00;99258.25;4970558;28;20361;-92
2023/12/22 12:30:27;;;;;;;;;;;;;;;10.86;100.00;99260.56;4990284;28;20555;-91
2023/12/22 12:32:54;;;;;;;0.60;0.60;;;;;;;10.80;100.00;99244.00;5000028;28;19913;-91
2023/12/22 12:35:22;;;;;;;0.70;0.70;;;;;;;10.87;100.00;99264.97;4966414;28;20448;-91
2023/12/22 12:37:47;;;;;;;0.70;0.70;;;;;;;10.76;100.00;99219.34;4980052;28;20051;-90
2023/12/22 12:40:19;;;;;;;0.70;0.70;;;;;;;10.84;100.00;99222.50;4982759;28;20029;-92
2023/12/22 12:42:45;;;;;;;0.70;0.70;;;;;;;10.92;100.00;99240.78;4972323;28;20046;-92
2023/12/22 12:45:10;;;;;;;0.70;0.70;;;;;;;10.96;100.00;99245.03;4972406;28;20025;-92
2023/12/22 12:47:36;;;;;;;0.70;0.70;;;;;;;10.88;100.00;99237.41;4966425;28;20027;-92
2023/12/22 12:50:02;;;;;;;0.70;0.70;;;;;;;10.99;100.00;99256.38;4970008;28;20014;-93
2023/12/22 12:52:28;;;;;;;0.70;0.70;;;;;;;11.00;100.00;99241.31;4981560;28;20030;-92
2023/12/22 12:54:54;;;;;;;0.60;0.60;;;;;;;10.64;100.00;99177.38;4982975;28;20550;-93
2023/12/22 12:57:21;;;;;;;0.70;0.70;;;;;;;10.68;100.00;99186.03;4975294;28;20089;-93
2023/12/22 12:59:50;;;;;;;0.77;0.77;;;;;;;10.62;100.00;99187.22;4967217;28;20046;-91
2023/12/22 13:02:16;;;;;;;0.70;0.70;;;;;;;10.89;100.00;99231.13;4966229;28;20031;-93
2023/12/22 13:04:42;;;;;;;0.70;0.70;;;;;;;10.93;100.00;99251.38;4979106;28;20077;-92
2023/12/22 13:07:12;;;;;;;0.73;0.73;;;;;;;10.96;100.00;99263.66;4984809;28;20276;-92
2023/12/22 13:09:39;;;;;;;0.70;0.70;;;;;;;10.76;100.00;99231.81;4977949;28;20097;-92
2023/12/22 13:12:05;;;;;;;0.70;0.70;;;;;;;10.76;100.00;99221.16;4990735;28;20030;-93
2023/12/22 13:14:30;;;;;;;0.63;0.63;;;;;;;10.89;100.00;99248.91;5003999;28;20022;-91
2023/12/22 13:16:57;;;;;;;0.70;0.70;;;;;;;10.98;100.00;99267.97;4979611;28;20444;-92
2023/12/22 13:19:27;;;;;;;0.70;0.70;;;;;;;11.03;100.00;99267.75;4961658;28;20110;-91
2023/12/22 13:21:56;;;;;;;0.70;0.70;;;;;;;10.77;100.00;99218.44;4985420;28;20113;-90
2023/12/22 13:24:22;;;;;;;0.70;0.70;;;;;;;10.88;100.00;99253.38;4979658;28;20026;-91
2023/12/22 13:27:02;;;;;;;0.70;0.70;;;;;;;11.09;100.00;99268.34;4997444;28;20074;-90
2023/12/22 13:29:28;;;;;;;0.70;0.70;;;;;;;11.03;100.00;99251.78;4978672;28;20109;-92
2023/12/22 13:31:54;;;;;;;0.70;0.70;;;;;;;11.01;100.00;99238.56;4987824;28;20033;-91
2023/12/22 13:34:19;;;;;;;0.75;0.75;;;;;;;11.30;100.00;99272.66;4985101;28;20035;-90
2023/12/22 13:36:45;;;;;;;0.70;0.70;;;;;;;11.40;100.00;99283.75;4996891;28;20086;-90
2023/12/22 13:39:13;;;;;;;0.70;0.70;;;;;;;11.33;100.00;99271.66;4992613;28;20026;-91
2023/12/22 13:41:41;;;;;;;0.70;0.70;;;;;;;11.28;100.00;99258.56;4980846;28;20368;-92
2023/12/22 13:44:07;;;;;;;0.70;0.70;;;;;;;11.35;100.00;99253.81;4998644;28;20555;-92
2023/12/22 13:46:36;;;;;;;0.70;0.70;;;;;;;11.44;100.00;99274.66;4980289;28;20042;-92
2023/12/22 13:49:03;;;;;;;0.80;0.80;;;;;;;11.40;100.00;99278.44;4962654;28;20121;-91
2023/12/22 13:51:42;;;;;;;0.70;0.70;;;;;;;11.28;100.00;99241.72;4961328;28;20030;-91
2023/12/22 13:54:08;;;;;;;0.70;0.70;;;;;;;11.51;100.00;99265.44;4971457;28;20027;-91
2023/12/22 13:56:39;;;;;;;0.60;0.60;;;;;;;11.43;100.00;99246.31;4981490;28;20031;-92
2023/12/22 13:59:05;;;;;;;0.70;0.70;;;;;;;11.56;100.00;99264.31;4977751;28;20506;-92
2023/12/22 14:01:31;;;;;;;0.70;0.70;;;;;;;11.49;100.00;99254.88;4969975;28;20022;-92
2023/12/22 14:03:59;;;;;;;0.70;0.70;;;;;;;11.50;100.00;99261.03;4979878;28;20022;-91
2023/12/22 14:06:28;;;;;;;0.70;0.70;;;;;;;11.66;100.00;99283.41;4981099;28;20034;-91
2023/12/22 14:08:54;;;;;;;0.70;0.70;;;;;;;11.60;100.00;99275.66;4999306;28;20102;-91
2023/12/22 14:11:20;;;;;;;0.70;0.70;;;;;;;11.30;100.00;99223.88;4981126;28;20057;-92
2023/12/22 14:13:46;;;;;;;0.70;0.70;;;;;;;11.22;100.00;99205.59;4981946;28;20077;-93
2023/12/22 14:16:11;;;;;;;0.70;0.70;;;;;;;11.65;100.00;99278.97;5001904;28;20030;-92
2023/12/22 14:18:37;;;;;;;0.60;0.60;;;;;;;11.71;100.00;99266.22;5006442;28;20494;-93
2023/12/22 14:21:05;;;;;;;0.70;0.70;;;;;;;11.83;100.00;99278.06;4986366;28;20030;-92
2023/12/22 14:23:30;;;;;;;0.60;0.60;;;;;;;11.84;100.00;99286.00;4988303;28;20022;-92
2023/12/22 14:25:56;;;;;;;0.70;0.70;;;;;;;11.87;100.00;99283.22;4966046;28;20033;-90
2023/12/22 14:28:22;;;;;;;0.70;0.70;;;;;;;11.82;100.00;99287.03;4967451;28;20023;-91
2023/12/22 14:30:47;;;;;;;0.60;0.60;;;;;;;11.73;100.00;99284.78;4978997;28;20373;-88
2023/12/22 14:33:13;;;;;;;0.70;0.70;;;;;;;11.72;100.00;99297.28;4977865;28;20054;-88
2023/12/22 14:35:39;;;;;;;0.63;0.63;;;;;;;11.75;100.00;99286.47;4976870;28;20022;-89
2023/12/22 14:38:04;;;;;;;0.70;0.70;;;;;;;11.83;100.00;99288.75;4961973;28;20027;-89
2023/12/22 14:40:30;;;;;;;0.63;0.63;;;;;;;11.81;100.00;99282.66;4958520;28;20027;-89
2023/12/22 14:42:55;;;;;;;0.70;0.70;;;;;;;11.73;100.00;99295.44;4960099;28;20023;-91
2023/12/22 14:45:21;;;;;;;0.70;0.70;;;;;;;11.62;100.00;99277.31;4967299;28;20026;-88
2023/12/22 15:08:27;;;;;;;0.70;0.70;;;;;;;11.37;100.00;99323.81;5011768;28;20120;-89
2023/12/22 15:10:53;;;;;;;0.70;0.70;;;;;;;11.40;100.00;99337.84;4997159;28;20084;-90
2023/12/22 15:13:18;;;;;;;0.70;0.70;;;;;;;11.46;100.00;99337.59;5017699;28;20033;-93
2023/12/22 15:15:43;;;;;;;0.60;0.60;;;;;;;11.45;100.00;99335.84;5017363;28;20033;-90
2023/12/22 15:18:09;;;;;;;0.70;0.70;;;;;;;11.40;100.00;99331.69;5001209;28;20702;-89
2023/12/22 15:20:34;;;;;;;0.60;0.60;;;;;;;11.31;100.00;99327.66;4996642;28;20026;-91
2023/12/22 15:23:01;;;;;;;0.70;0.70;;;;;;;11.44;100.00;99341.22;5002033;28;20038;-89
2023/12/22 15:25:26;;;;;;;0.80;0.80;;;;;;;11.46;100.00;99342.91;5001927;28;20047;-90
2023/12/22 15:27:52;;;;;;;0.70;0.70;;;;;;;11.30;100.00;99319.72;5001668;28;20046;-91
2023/12/22 15:30:17;;;;;;;0.70;0.70;;;;;;;11.48;100.00;99346.34;5001401;28;20021;-91
2023/12/22 15:32:43;;;;;;;0.70;0.70;;;;;;;11.09;100.00;99270.13;4999357;28;20029;-89
2023/12/22 15:35:08;;;;;;;0.70;0.70;;;;;;;11.18;100.00;99299.88;5001788;28;20029;-91
2023/12/22 15:37:33;;;;;;;0.70;0.70;;;;;;;11.38;100.00;99329.06;5004575;28;20037;-90
2023/12/22 15:39:59;;;;;;;0.80;0.80;;;;;;;11.41;100.00;99341.38;5004519;28;20038;-92
2023/12/22 15:42:27;;;;;;;0.70;0.70;;;;;;;11.44;100.00;99344.78;5006314;28;20025;-93
2023/12/22 15:44:53;;;;;;;0.70;0.70;;;;;;;11.15;100.00;99304.47;4991255;28;20033;-91
2023/12/22 15:47:18;;;;;;;0.60;0.60;;;;;;;11.48;100.00;99367.63;5004472;28;20022;-92
2023/12/22 15:49:44;;;;;;;0.60;0.60;;;;;;;11.44;100.00;99366.06;5003437;28;20026;-91
2023/12/22 15:52:09;;;;;;;0.70;0.70;;;;;;;11.43;100.00;99356.34;5022742;28;20030;-90
2023/12/22 15:54:36;;;;;;;0.60;0.60;;;;;;;11.33;100.00;99346.19;5009156;28;20029;-90
2023/12/22 15:57:02;;;;;;;0.70;0.70;;;;;;;11.31;100.00;99342.75;5007018;28;20090;-92
2023/12/22 15:59:27;;;;;;;0.70;0.70;;;;;;;11.45;100.00;99372.28;5009469;28;20036;-92
2023/12/22 16:01:53;;;;;;;0.70;0.70;;;;;;;11.52;100.00;99387.00;5008232;28;20093;-91
2023/12/22 16:04:18;;;;;;;0.70;0.70;;;;;;;11.45;100.00;99373.13;5024747;28;20109;-91
2023/12/22 16:06:44;;;;;;;0.75;0.75;;;;;;;11.40;100.00;99360.97;4994824;28;20784;-91
2023/12/22 16:09:09;;;;;;;0.70;0.70;;;;;;;11.57;100.00;99414.28;4982020;28;20019;-92
2023/12/22 16:11:35;;;;;;;0.60;0.60;;;;;;;11.49;100.00;99396.03;4986771;28;20027;-91